sensor_id;sensor_type;location;lat;lon;timestamp;temperature;humidity
44037;DHT22;62488;-37.670;-63.532;2023-03-08T00:01:20;22.60;99.90
44037;DHT22;62488;-37.670;-63.532;2023-03-08T00:03:51;22.60;99.90
44037;DHT22;62488;-37.670;-63.532;2023-03-08T00:06:19;22.50;99.90
44037;DHT22;62488;-37.670;-63.532;2023-03-08T00:08:47;22.50;99.90
44037;DHT22;62488;-37.670;-63.532;2023-03-08T00:11:15;22.40;99.90
44037;DHT22;62488;-37.670;-63.532;2023-03-08T00:13:42;22.40;99.90
44037;DHT22;62488;-37.670;-63.532;2023-03-08T00:16:11;22.30;99.90
44037;DHT22;62488;-37.670;-63.532;2023-03-08T00:18:39;22.30;99.90
44037;DHT22;62488;-37.670;-63.532;2023-03-08T00:21:15;22.30;99.90
44037;DHT22;62488;-37.670;-63.532;2023-03-08T00:23:43;22.20;99.90
44037;DHT22;62488;-37.670;-63.532;2023-03-08T00:26:11;22.20;99.90
44037;DHT22;62488;-37.670;-63.532;2023-03-08T00:28:39;22.10;99.90
44037;DHT22;62488;-37.670;-63.532;2023-03-08T00:31:12;22.10;99.90
44037;DHT22;62488;-37.670;-63.532;2023-03-08T00:33:39;22.10;99.90
44037;DHT22;62488;-37.670;-63.532;2023-03-08T00:36:13;22.00;99.90
44037;DHT22;62488;-37.670;-63.532;2023-03-08T00:38:40;21.90;99.90
44037;DHT22;62488;-37.670;-63.532;2023-03-08T00:41:07;21.80;99.90
44037;DHT22;62488;-37.670;-63.532;2023-03-08T00:43:35;21.80;99.90
44037;DHT22;62488;-37.670;-63.532;2023-03-08T00:46:02;21.80;99.90
44037;DHT22;62488;-37.670;-63.532;2023-03-08T00:48:30;21.80;99.90
44037;DHT22;62488;-37.670;-63.532;2023-03-08T00:50:57;21.70;99.90
44037;DHT22;62488;-37.670;-63.532;2023-03-08T00:53:25;21.70;99.90
44037;DHT22;62488;-37.670;-63.532;2023-03-08T00:55:54;21.70;99.90
44037;DHT22;62488;-37.670;-63.532;2023-03-08T00:58:23;21.60;99.90
44037;DHT22;62488;-37.670;-63.532;2023-03-08T01:00:51;21.60;99.90
44037;DHT22;62488;-37.670;-63.532;2023-03-08T01:03:19;21.60;99.90
44037;DHT22;62488;-37.670;-63.532;2023-03-08T01:05:49;21.60;99.90
44037;DHT22;62488;-37.670;-63.532;2023-03-08T01:08:16;21.50;99.90
44037;DHT22;62488;-37.670;-63.532;2023-03-08T01:10:51;21.40;99.90
44037;DHT22;62488;-37.670;-63.532;2023-03-08T01:13:19;21.50;99.90
44037;DHT22;62488;-37.670;-63.532;2023-03-08T01:15:46;21.40;99.90
44037;DHT22;62488;-37.670;-63.532;2023-03-08T01:18:14;21.30;99.90
44037;DHT22;62488;-37.670;-63.532;2023-03-08T01:20:41;21.30;99.90
44037;DHT22;62488;-37.670;-63.532;2023-03-08T01:23:09;21.20;99.90
44037;DHT22;62488;-37.670;-63.532;2023-03-08T01:25:36;21.20;99.90
44037;DHT22;62488;-37.670;-63.532;2023-03-08T01:28:03;21.10;99.90
44037;DHT22;62488;-37.670;-63.532;2023-03-08T01:30:30;21.10;99.90
44037;DHT22;62488;-37.670;-63.532;2023-03-08T01:32:57;21.10;99.90
44037;DHT22;62488;-37.670;-63.532;2023-03-08T01:35:24;21.00;99.90
44037;DHT22;62488;-37.670;-63.532;2023-03-08T01:37:51;21.00;99.90
44037;DHT22;62488;-37.670;-63.532;2023-03-08T01:40:19;20.90;99.90
44037;DHT22;62488;-37.670;-63.532;2023-03-08T01:42:46;20.80;99.90
44037;DHT22;62488;-37.670;-63.532;2023-03-08T01:48:17;20.70;99.90
44037;DHT22;62488;-37.670;-63.532;2023-03-08T01:50:45;20.60;99.90
44037;DHT22;62488;-37.670;-63.532;2023-03-08T01:53:12;20.60;99.90
44037;DHT22;62488;-37.670;-63.532;2023-03-08T01:55:40;20.50;99.90
44037;DHT22;62488;-37.670;-63.532;2023-03-08T01:58:07;20.40;99.90
44037;DHT22;62488;-37.670;-63.532;2023-03-08T02:00:34;20.40;99.90
44037;DHT22;62488;-37.670;-63.532;2023-03-08T02:03:06;20.40;99.90
44037;DHT22;62488;-37.670;-63.532;2023-03-08T02:05:36;20.30;99.90
44037;DHT22;62488;-37.670;-63.532;2023-03-08T02:08:04;20.20;99.90
44037;DHT22;62488;-37.670;-63.532;2023-03-08T02:10:31;20.20;99.90
44037;DHT22;62488;-37.670;-63.532;2023-03-08T02:13:01;20.10;99.90
44037;DHT22;62488;-37.670;-63.532;2023-03-08T02:15:29;20.10;99.90
44037;DHT22;62488;-37.670;-63.532;2023-03-08T02:17:56;20.00;99.90
44037;DHT22;62488;-37.670;-63.532;2023-03-08T02:20:30;20.00;99.90
44037;DHT22;62488;-37.670;-63.532;2023-03-08T02:25:38;19.90;99.90
44037;DHT22;62488;-37.670;-63.532;2023-03-08T02:28:06;19.90;99.90
44037;DHT22;62488;-37.670;-63.532;2023-03-08T02:30:36;19.90;99.90
44037;DHT22;62488;-37.670;-63.532;2023-03-08T02:33:03;19.80;99.90
44037;DHT22;62488;-37.670;-63.532;2023-03-08T02:35:30;19.70;99.90
44037;DHT22;62488;-37.670;-63.532;2023-03-08T02:37:57;19.70;99.90
44037;DHT22;62488;-37.670;-63.532;2023-03-08T02:40:24;19.60;99.90
44037;DHT22;62488;-37.670;-63.532;2023-03-08T02:42:51;19.60;99.90
44037;DHT22;62488;-37.670;-63.532;2023-03-08T02:45:21;19.50;99.90
44037;DHT22;62488;-37.670;-63.532;2023-03-08T02:47:52;19.50;99.90
44037;DHT22;62488;-37.670;-63.532;2023-03-08T02:50:19;19.50;99.90
44037;DHT22;62488;-37.670;-63.532;2023-03-08T02:52:46;19.50;99.90
44037;DHT22;62488;-37.670;-63.532;2023-03-08T02:55:13;19.40;99.90
44037;DHT22;62488;-37.670;-63.532;2023-03-08T02:57:40;19.40;99.90
44037;DHT22;62488;-37.670;-63.532;2023-03-08T03:00:07;19.40;99.90
44037;DHT22;62488;-37.670;-63.532;2023-03-08T03:02:35;19.30;99.90
44037;DHT22;62488;-37.670;-63.532;2023-03-08T03:05:04;19.30;99.90
44037;DHT22;62488;-37.670;-63.532;2023-03-08T03:07:34;19.30;99.90
44037;DHT22;62488;-37.670;-63.532;2023-03-08T03:10:02;19.20;99.90
44037;DHT22;62488;-37.670;-63.532;2023-03-08T03:12:30;19.20;99.90
44037;DHT22;62488;-37.670;-63.532;2023-03-08T03:14:57;19.20;99.90
44037;DHT22;62488;-37.670;-63.532;2023-03-08T03:17:24;19.10;99.90
44037;DHT22;62488;-37.670;-63.532;2023-03-08T03:19:51;19.10;99.90
44037;DHT22;62488;-37.670;-63.532;2023-03-08T03:22:18;19.10;99.90
44037;DHT22;62488;-37.670;-63.532;2023-03-08T03:24:45;19.10;99.90
44037;DHT22;62488;-37.670;-63.532;2023-03-08T03:27:12;19.10;99.90
44037;DHT22;62488;-37.670;-63.532;2023-03-08T03:29:39;19.10;99.90
44037;DHT22;62488;-37.670;-63.532;2023-03-08T03:32:07;19.10;99.90
44037;DHT22;62488;-37.670;-63.532;2023-03-08T03:34:35;19.00;99.90
44037;DHT22;62488;-37.670;-63.532;2023-03-08T03:37:03;19.00;99.90
44037;DHT22;62488;-37.670;-63.532;2023-03-08T03:39:30;19.10;99.90
44037;DHT22;62488;-37.670;-63.532;2023-03-08T03:42:00;19.00;99.90
44037;DHT22;62488;-37.670;-63.532;2023-03-08T03:44:30;19.00;99.90
44037;DHT22;62488;-37.670;-63.532;2023-03-08T03:58:57;19.10;99.90
44037;DHT22;62488;-37.670;-63.532;2023-03-08T04:01:26;19.00;99.90
44037;DHT22;62488;-37.670;-63.532;2023-03-08T04:03:53;19.00;99.90
44037;DHT22;62488;-37.670;-63.532;2023-03-08T04:06:23;19.00;99.90
44037;DHT22;62488;-37.670;-63.532;2023-03-08T04:08:56;18.90;99.90
44037;DHT22;62488;-37.670;-63.532;2023-03-08T04:11:26;18.90;99.90
44037;DHT22;62488;-37.670;-63.532;2023-03-08T04:13:54;18.80;99.90
44037;DHT22;62488;-37.670;-63.532;2023-03-08T04:16:26;18.80;99.90
44037;DHT22;62488;-37.670;-63.532;2023-03-08T04:18:59;18.80;99.90
44037;DHT22;62488;-37.670;-63.532;2023-03-08T04:21:26;18.70;99.90
44037;DHT22;62488;-37.670;-63.532;2023-03-08T04:23:54;18.70;99.90
44037;DHT22;62488;-37.670;-63.532;2023-03-08T04:26:22;18.70;99.90
44037;DHT22;62488;-37.670;-63.532;2023-03-08T04:28:49;18.70;99.90
44037;DHT22;62488;-37.670;-63.532;2023-03-08T04:33:49;18.70;99.90
44037;DHT22;62488;-37.670;-63.532;2023-03-08T04:36:17;18.60;99.90
44037;DHT22;62488;-37.670;-63.532;2023-03-08T04:38:44;18.60;99.90
44037;DHT22;62488;-37.670;-63.532;2023-03-08T04:41:12;18.60;99.90
44037;DHT22;62488;-37.670;-63.532;2023-03-08T04:43:45;18.50;99.90
44037;DHT22;62488;-37.670;-63.532;2023-03-08T04:46:13;18.50;99.90
44037;DHT22;62488;-37.670;-63.532;2023-03-08T04:48:41;18.50;99.90
44037;DHT22;62488;-37.670;-63.532;2023-03-08T04:51:09;18.50;99.90
44037;DHT22;62488;-37.670;-63.532;2023-03-08T04:53:37;18.50;99.90
44037;DHT22;62488;-37.670;-63.532;2023-03-08T04:56:05;18.50;99.90
44037;DHT22;62488;-37.670;-63.532;2023-03-08T04:58:32;18.60;99.90
44037;DHT22;62488;-37.670;-63.532;2023-03-08T05:01:06;18.60;99.90
44037;DHT22;62488;-37.670;-63.532;2023-03-08T05:03:33;18.60;99.90
44037;DHT22;62488;-37.670;-63.532;2023-03-08T05:06:00;18.60;99.90
44037;DHT22;62488;-37.670;-63.532;2023-03-08T05:08:27;18.50;99.90
44037;DHT22;62488;-37.670;-63.532;2023-03-08T05:10:59;18.60;99.90
44037;DHT22;62488;-37.670;-63.532;2023-03-08T05:13:29;18.60;99.90
44037;DHT22;62488;-37.670;-63.532;2023-03-08T05:15:56;18.50;99.90
44037;DHT22;62488;-37.670;-63.532;2023-03-08T05:18:23;18.50;99.90
44037;DHT22;62488;-37.670;-63.532;2023-03-08T05:20:58;18.50;99.90
44037;DHT22;62488;-37.670;-63.532;2023-03-08T05:23:27;18.40;99.90
44037;DHT22;62488;-37.670;-63.532;2023-03-08T05:25:56;18.30;99.90
44037;DHT22;62488;-37.670;-63.532;2023-03-08T05:28:25;18.30;99.90
44037;DHT22;62488;-37.670;-63.532;2023-03-08T05:31:17;18.30;99.90
44037;DHT22;62488;-37.670;-63.532;2023-03-08T05:33:46;18.20;99.90
44037;DHT22;62488;-37.670;-63.532;2023-03-08T05:36:15;18.20;99.90
44037;DHT22;62488;-37.670;-63.532;2023-03-08T05:38:43;18.20;99.90
44037;DHT22;62488;-37.670;-63.532;2023-03-08T05:41:14;18.10;99.90
44037;DHT22;62488;-37.670;-63.532;2023-03-08T05:43:42;18.10;99.90
44037;DHT22;62488;-37.670;-63.532;2023-03-08T05:46:15;18.10;99.90
44037;DHT22;62488;-37.670;-63.532;2023-03-08T05:48:42;18.10;99.90
44037;DHT22;62488;-37.670;-63.532;2023-03-08T05:51:14;18.10;99.90
44037;DHT22;62488;-37.670;-63.532;2023-03-08T05:53:42;18.10;99.90
44037;DHT22;62488;-37.670;-63.532;2023-03-08T05:56:17;18.10;99.90
44037;DHT22;62488;-37.670;-63.532;2023-03-08T05:58:44;18.10;99.90
44037;DHT22;62488;-37.670;-63.532;2023-03-08T06:01:23;18.00;99.90
44037;DHT22;62488;-37.670;-63.532;2023-03-08T06:03:52;18.00;99.90
44037;DHT22;62488;-37.670;-63.532;2023-03-08T06:06:23;18.00;99.90
44037;DHT22;62488;-37.670;-63.532;2023-03-08T06:08:50;18.00;99.90
44037;DHT22;62488;-37.670;-63.532;2023-03-08T06:11:18;17.90;99.90
44037;DHT22;62488;-37.670;-63.532;2023-03-08T06:13:45;17.90;99.90
44037;DHT22;62488;-37.670;-63.532;2023-03-08T06:16:12;17.90;99.90
44037;DHT22;62488;-37.670;-63.532;2023-03-08T06:18:40;17.80;99.90
44037;DHT22;62488;-37.670;-63.532;2023-03-08T06:21:09;17.80;99.90
44037;DHT22;62488;-37.670;-63.532;2023-03-08T06:23:38;17.80;99.90
44037;DHT22;62488;-37.670;-63.532;2023-03-08T06:26:06;17.80;99.90
44037;DHT22;62488;-37.670;-63.532;2023-03-08T06:28:33;17.70;99.90
44037;DHT22;62488;-37.670;-63.532;2023-03-08T06:31:01;17.70;99.90
44037;DHT22;62488;-37.670;-63.532;2023-03-08T06:33:30;17.70;99.90
44037;DHT22;62488;-37.670;-63.532;2023-03-08T06:35:58;17.70;99.90
44037;DHT22;62488;-37.670;-63.532;2023-03-08T06:38:27;17.70;99.90
44037;DHT22;62488;-37.670;-63.532;2023-03-08T06:40:54;17.60;99.90
44037;DHT22;62488;-37.670;-63.532;2023-03-08T06:43:21;17.60;99.90
44037;DHT22;62488;-37.670;-63.532;2023-03-08T06:45:48;17.60;99.90
44037;DHT22;62488;-37.670;-63.532;2023-03-08T06:48:16;17.60;99.90
44037;DHT22;62488;-37.670;-63.532;2023-03-08T06:50:43;17.50;99.90
44037;DHT22;62488;-37.670;-63.532;2023-03-08T06:53:11;17.50;99.90
44037;DHT22;62488;-37.670;-63.532;2023-03-08T06:55:40;17.50;99.90
44037;DHT22;62488;-37.670;-63.532;2023-03-08T06:58:07;17.50;99.90
44037;DHT22;62488;-37.670;-63.532;2023-03-08T07:00:35;17.50;99.90
44037;DHT22;62488;-37.670;-63.532;2023-03-08T07:03:02;17.40;99.90
44037;DHT22;62488;-37.670;-63.532;2023-03-08T07:05:29;17.40;99.90
44037;DHT22;62488;-37.670;-63.532;2023-03-08T07:07:56;17.40;99.90
44037;DHT22;62488;-37.670;-63.532;2023-03-08T07:10:23;17.40;99.90
44037;DHT22;62488;-37.670;-63.532;2023-03-08T07:12:50;17.30;99.90
44037;DHT22;62488;-37.670;-63.532;2023-03-08T07:15:20;17.30;99.90
44037;DHT22;62488;-37.670;-63.532;2023-03-08T07:17:48;17.30;99.90
44037;DHT22;62488;-37.670;-63.532;2023-03-08T07:20:17;17.30;99.90
44037;DHT22;62488;-37.670;-63.532;2023-03-08T07:22:45;17.30;99.90
44037;DHT22;62488;-37.670;-63.532;2023-03-08T07:25:17;17.20;99.90
44037;DHT22;62488;-37.670;-63.532;2023-03-08T07:27:45;17.20;99.90
44037;DHT22;62488;-37.670;-63.532;2023-03-08T07:30:14;17.20;99.90
44037;DHT22;62488;-37.670;-63.532;2023-03-08T07:32:42;17.20;99.90
44037;DHT22;62488;-37.670;-63.532;2023-03-08T07:35:11;17.20;99.90
44037;DHT22;62488;-37.670;-63.532;2023-03-08T07:37:38;17.10;99.90
44037;DHT22;62488;-37.670;-63.532;2023-03-08T07:40:06;17.10;99.90
44037;DHT22;62488;-37.670;-63.532;2023-03-08T07:42:33;17.00;99.90
44037;DHT22;62488;-37.670;-63.532;2023-03-08T07:45:00;17.00;99.90
44037;DHT22;62488;-37.670;-63.532;2023-03-08T07:47:27;17.00;99.90
44037;DHT22;62488;-37.670;-63.532;2023-03-08T07:49:54;17.00;99.90
44037;DHT22;62488;-37.670;-63.532;2023-03-08T07:52:29;16.90;99.90
44037;DHT22;62488;-37.670;-63.532;2023-03-08T07:54:56;16.90;99.90
44037;DHT22;62488;-37.670;-63.532;2023-03-08T07:57:24;16.90;99.90
44037;DHT22;62488;-37.670;-63.532;2023-03-08T07:59:51;16.80;99.90
44037;DHT22;62488;-37.670;-63.532;2023-03-08T08:02:18;16.80;99.90
44037;DHT22;62488;-37.670;-63.532;2023-03-08T08:04:45;16.80;99.90
44037;DHT22;62488;-37.670;-63.532;2023-03-08T08:07:14;16.80;99.90
44037;DHT22;62488;-37.670;-63.532;2023-03-08T08:09:41;16.70;99.90
44037;DHT22;62488;-37.670;-63.532;2023-03-08T08:12:09;16.70;99.90
44037;DHT22;62488;-37.670;-63.532;2023-03-08T08:14:36;16.60;99.90
44037;DHT22;62488;-37.670;-63.532;2023-03-08T08:17:03;16.60;99.90
44037;DHT22;62488;-37.670;-63.532;2023-03-08T08:19:30;16.60;99.90
44037;DHT22;62488;-37.670;-63.532;2023-03-08T08:21:57;16.60;99.90
44037;DHT22;62488;-37.670;-63.532;2023-03-08T08:24:24;16.60;99.90
44037;DHT22;62488;-37.670;-63.532;2023-03-08T08:26:52;16.70;99.90
44037;DHT22;62488;-37.670;-63.532;2023-03-08T08:29:19;16.60;99.90
44037;DHT22;62488;-37.670;-63.532;2023-03-08T08:31:46;16.60;99.90
44037;DHT22;62488;-37.670;-63.532;2023-03-08T08:34:13;16.60;99.90
44037;DHT22;62488;-37.670;-63.532;2023-03-08T08:36:40;16.60;99.90
44037;DHT22;62488;-37.670;-63.532;2023-03-08T08:39:07;16.70;99.90
44037;DHT22;62488;-37.670;-63.532;2023-03-08T08:41:34;16.70;99.90
44037;DHT22;62488;-37.670;-63.532;2023-03-08T08:44:01;16.70;99.90
44037;DHT22;62488;-37.670;-63.532;2023-03-08T08:46:29;16.70;99.90
44037;DHT22;62488;-37.670;-63.532;2023-03-08T08:48:59;16.60;99.90
44037;DHT22;62488;-37.670;-63.532;2023-03-08T08:51:27;16.60;99.90
44037;DHT22;62488;-37.670;-63.532;2023-03-08T08:53:54;16.60;99.90
44037;DHT22;62488;-37.670;-63.532;2023-03-08T08:56:26;16.60;99.90
44037;DHT22;62488;-37.670;-63.532;2023-03-08T08:58:55;16.60;99.90
44037;DHT22;62488;-37.670;-63.532;2023-03-08T09:01:25;16.60;99.90
44037;DHT22;62488;-37.670;-63.532;2023-03-08T09:03:52;16.60;99.90
44037;DHT22;62488;-37.670;-63.532;2023-03-08T09:06:23;16.60;99.90
44037;DHT22;62488;-37.670;-63.532;2023-03-08T09:08:55;16.60;99.90
44037;DHT22;62488;-37.670;-63.532;2023-03-08T09:11:24;16.60;99.90
44037;DHT22;62488;-37.670;-63.532;2023-03-08T09:13:51;16.50;99.90
44037;DHT22;62488;-37.670;-63.532;2023-03-08T09:16:32;16.50;99.90
44037;DHT22;62488;-37.670;-63.532;2023-03-08T09:19:02;16.50;99.90
44037;DHT22;62488;-37.670;-63.532;2023-03-08T09:21:31;16.60;99.90
44037;DHT22;62488;-37.670;-63.532;2023-03-08T09:24:01;16.50;99.90
44037;DHT22;62488;-37.670;-63.532;2023-03-08T09:26:32;16.50;99.90
44037;DHT22;62488;-37.670;-63.532;2023-03-08T09:29:00;16.50;99.90
44037;DHT22;62488;-37.670;-63.532;2023-03-08T09:31:32;16.50;99.90
44037;DHT22;62488;-37.670;-63.532;2023-03-08T09:33:59;16.50;99.90
44037;DHT22;62488;-37.670;-63.532;2023-03-08T09:36:30;16.50;99.90
44037;DHT22;62488;-37.670;-63.532;2023-03-08T09:38:58;16.50;99.90
44037;DHT22;62488;-37.670;-63.532;2023-03-08T09:44:27;16.50;99.90
44037;DHT22;62488;-37.670;-63.532;2023-03-08T09:47:05;16.50;99.90
44037;DHT22;62488;-37.670;-63.532;2023-03-08T09:49:34;16.50;99.90
44037;DHT22;62488;-37.670;-63.532;2023-03-08T09:52:27;16.50;99.90
44037;DHT22;62488;-37.670;-63.532;2023-03-08T09:54:58;16.50;99.90
44037;DHT22;62488;-37.670;-63.532;2023-03-08T09:57:35;16.50;99.90
44037;DHT22;62488;-37.670;-63.532;2023-03-08T10:00:06;16.50;99.90
44037;DHT22;62488;-37.670;-63.532;2023-03-08T10:05:39;16.50;99.90
44037;DHT22;62488;-37.670;-63.532;2023-03-08T10:08:19;16.50;99.90
44037;DHT22;62488;-37.670;-63.532;2023-03-08T10:11:23;16.50;99.90
44037;DHT22;62488;-37.670;-63.532;2023-03-08T10:13:59;16.50;99.90
44037;DHT22;62488;-37.670;-63.532;2023-03-08T10:16:38;16.50;99.90
44037;DHT22;62488;-37.670;-63.532;2023-03-08T10:19:19;16.40;99.90
44037;DHT22;62488;-37.670;-63.532;2023-03-08T10:21:48;16.40;99.90
44037;DHT22;62488;-37.670;-63.532;2023-03-08T10:27:31;16.50;99.90
44037;DHT22;62488;-37.670;-63.532;2023-03-08T10:30:00;16.50;99.90
44037;DHT22;62488;-37.670;-63.532;2023-03-08T10:32:28;16.50;99.90
44037;DHT22;62488;-37.670;-63.532;2023-03-08T10:35:02;16.50;99.90
44037;DHT22;62488;-37.670;-63.532;2023-03-08T10:37:33;16.50;99.90
44037;DHT22;62488;-37.670;-63.532;2023-03-08T10:40:05;16.50;99.90
44037;DHT22;62488;-37.670;-63.532;2023-03-08T10:42:33;16.50;99.90
44037;DHT22;62488;-37.670;-63.532;2023-03-08T10:45:12;16.40;99.90
44037;DHT22;62488;-37.670;-63.532;2023-03-08T10:47:40;16.40;99.90
44037;DHT22;62488;-37.670;-63.532;2023-03-08T10:50:19;16.40;99.90
44037;DHT22;62488;-37.670;-63.532;2023-03-08T10:52:47;16.40;99.90
44037;DHT22;62488;-37.670;-63.532;2023-03-08T10:55:16;16.40;99.90
44037;DHT22;62488;-37.670;-63.532;2023-03-08T10:57:56;16.40;99.90
44037;DHT22;62488;-37.670;-63.532;2023-03-08T11:00:30;16.40;99.90
44037;DHT22;62488;-37.670;-63.532;2023-03-08T11:03:18;16.50;99.90
44037;DHT22;62488;-37.670;-63.532;2023-03-08T11:05:56;16.50;99.90
44037;DHT22;62488;-37.670;-63.532;2023-03-08T11:08:36;16.60;99.90
44037;DHT22;62488;-37.670;-63.532;2023-03-08T11:11:08;16.70;99.90
44037;DHT22;62488;-37.670;-63.532;2023-03-08T11:13:38;16.80;99.90
44037;DHT22;62488;-37.670;-63.532;2023-03-08T11:19:08;16.90;99.90
44037;DHT22;62488;-37.670;-63.532;2023-03-08T11:21:52;17.00;99.90
44037;DHT22;62488;-37.670;-63.532;2023-03-08T11:24:51;17.10;99.90
44037;DHT22;62488;-37.670;-63.532;2023-03-08T11:33:56;17.30;99.90
44037;DHT22;62488;-37.670;-63.532;2023-03-08T11:39:34;17.40;99.90
44037;DHT22;62488;-37.670;-63.532;2023-03-08T11:55:29;17.90;99.90
44037;DHT22;62488;-37.670;-63.532;2023-03-08T12:01:05;18.20;99.90
44037;DHT22;62488;-37.670;-63.532;2023-03-08T12:03:37;18.30;99.90
44037;DHT22;62488;-37.670;-63.532;2023-03-08T12:06:37;18.70;99.90
44037;DHT22;62488;-37.670;-63.532;2023-03-08T12:09:19;19.00;99.90
44037;DHT22;62488;-37.670;-63.532;2023-03-08T12:12:04;19.10;99.90
44037;DHT22;62488;-37.670;-63.532;2023-03-08T12:14:55;19.40;99.90
44037;DHT22;62488;-37.670;-63.532;2023-03-08T12:17:41;19.30;99.90
44037;DHT22;62488;-37.670;-63.532;2023-03-08T12:20:14;19.40;99.90
44037;DHT22;62488;-37.670;-63.532;2023-03-08T12:22:45;19.60;99.90
44037;DHT22;62488;-37.670;-63.532;2023-03-08T12:31:07;20.00;99.90
44037;DHT22;62488;-37.670;-63.532;2023-03-08T12:33:39;20.40;99.90
44037;DHT22;62488;-37.670;-63.532;2023-03-08T12:36:07;20.60;99.90
44037;DHT22;62488;-37.670;-63.532;2023-03-08T12:38:38;20.80;99.90
44037;DHT22;62488;-37.670;-63.532;2023-03-08T12:41:28;20.90;99.90
44037;DHT22;62488;-37.670;-63.532;2023-03-08T12:44:04;21.20;99.90
44037;DHT22;62488;-37.670;-63.532;2023-03-08T12:46:57;21.30;99.90
44037;DHT22;62488;-37.670;-63.532;2023-03-08T12:52:45;20.70;99.90
44037;DHT22;62488;-37.670;-63.532;2023-03-08T12:57:45;20.60;99.90
44037;DHT22;62488;-37.670;-63.532;2023-03-08T13:05:34;20.30;99.90
44037;DHT22;62488;-37.670;-63.532;2023-03-08T13:15:50;19.70;99.90
44037;DHT22;62488;-37.670;-63.532;2023-03-08T13:18:18;19.60;99.90
44037;DHT22;62488;-37.670;-63.532;2023-03-08T13:23:37;19.40;99.90
44037;DHT22;62488;-37.670;-63.532;2023-03-08T13:28:44;19.40;99.90
44037;DHT22;62488;-37.670;-63.532;2023-03-08T13:31:41;19.50;99.90
44037;DHT22;62488;-37.670;-63.532;2023-03-08T13:34:30;19.60;99.90
44037;DHT22;62488;-37.670;-63.532;2023-03-08T13:36:58;19.60;99.90
44037;DHT22;62488;-37.670;-63.532;2023-03-08T13:39:27;19.60;99.90
44037;DHT22;62488;-37.670;-63.532;2023-03-08T13:42:09;19.50;99.90
44037;DHT22;62488;-37.670;-63.532;2023-03-08T13:44:37;19.50;99.90
44037;DHT22;62488;-37.670;-63.532;2023-03-08T13:47:34;19.40;99.90
44037;DHT22;62488;-37.670;-63.532;2023-03-08T13:50:00;19.50;99.90
44037;DHT22;62488;-37.670;-63.532;2023-03-08T13:52:30;19.70;99.90
44037;DHT22;62488;-37.670;-63.532;2023-03-08T13:55:01;19.90;99.90
44037;DHT22;62488;-37.670;-63.532;2023-03-08T13:57:31;19.90;99.90
44037;DHT22;62488;-37.670;-63.532;2023-03-08T13:59:59;20.00;99.90
44037;DHT22;62488;-37.670;-63.532;2023-03-08T14:02:31;20.00;99.90
44037;DHT22;62488;-37.670;-63.532;2023-03-08T14:04:58;20.00;99.90
44037;DHT22;62488;-37.670;-63.532;2023-03-08T14:07:29;20.10;99.90
44037;DHT22;62488;-37.670;-63.532;2023-03-08T14:09:59;20.10;99.90
44037;DHT22;62488;-37.670;-63.532;2023-03-08T14:12:30;20.20;99.90
44037;DHT22;62488;-37.670;-63.532;2023-03-08T14:15:00;20.30;99.90
44037;DHT22;62488;-37.670;-63.532;2023-03-08T14:17:30;20.30;99.90
44037;DHT22;62488;-37.670;-63.532;2023-03-08T14:20:03;20.40;99.90
44037;DHT22;62488;-37.670;-63.532;2023-03-08T14:22:39;20.40;99.90
44037;DHT22;62488;-37.670;-63.532;2023-03-08T14:25:19;20.40;99.90
44037;DHT22;62488;-37.670;-63.532;2023-03-08T14:27:46;20.30;99.90
44037;DHT22;62488;-37.670;-63.532;2023-03-08T14:30:20;20.30;99.90
44037;DHT22;62488;-37.670;-63.532;2023-03-08T14:35:38;20.50;99.90
44037;DHT22;62488;-37.670;-63.532;2023-03-08T14:38:19;20.50;99.90
44037;DHT22;62488;-37.670;-63.532;2023-03-08T14:40:49;20.40;99.90
44037;DHT22;62488;-37.670;-63.532;2023-03-08T14:43:22;20.40;99.90
44037;DHT22;62488;-37.670;-63.532;2023-03-08T14:45:56;20.40;99.90
44037;DHT22;62488;-37.670;-63.532;2023-03-08T14:48:32;20.40;99.90
44037;DHT22;62488;-37.670;-63.532;2023-03-08T14:53:39;20.30;99.90
44037;DHT22;62488;-37.670;-63.532;2023-03-08T14:56:12;20.30;99.90
44037;DHT22;62488;-37.670;-63.532;2023-03-08T14:58:42;20.20;99.90
44037;DHT22;62488;-37.670;-63.532;2023-03-08T15:01:09;20.20;99.90
44037;DHT22;62488;-37.670;-63.532;2023-03-08T15:03:36;20.30;99.90
44037;DHT22;62488;-37.670;-63.532;2023-03-08T15:06:19;20.30;99.90
44037;DHT22;62488;-37.670;-63.532;2023-03-08T15:08:47;20.20;99.90
44037;DHT22;62488;-37.670;-63.532;2023-03-08T15:11:14;20.20;99.90
44037;DHT22;62488;-37.670;-63.532;2023-03-08T15:13:42;20.30;99.90
44037;DHT22;62488;-37.670;-63.532;2023-03-08T15:16:11;20.30;99.90
44037;DHT22;62488;-37.670;-63.532;2023-03-08T15:18:38;20.30;99.90
44037;DHT22;62488;-37.670;-63.532;2023-03-08T15:21:05;20.40;99.90
44037;DHT22;62488;-37.670;-63.532;2023-03-08T15:23:36;20.40;99.90
44037;DHT22;62488;-37.670;-63.532;2023-03-08T15:26:05;20.30;99.90
44037;DHT22;62488;-37.670;-63.532;2023-03-08T15:28:32;20.20;99.90
44037;DHT22;62488;-37.670;-63.532;2023-03-08T15:30:59;20.10;99.90
44037;DHT22;62488;-37.670;-63.532;2023-03-08T15:33:26;20.00;99.90
44037;DHT22;62488;-37.670;-63.532;2023-03-08T15:35:53;19.90;99.90
44037;DHT22;62488;-37.670;-63.532;2023-03-08T15:38:21;19.80;99.90
44037;DHT22;62488;-37.670;-63.532;2023-03-08T15:40:50;19.60;99.90
44037;DHT22;62488;-37.670;-63.532;2023-03-08T15:43:17;19.60;99.90
44037;DHT22;62488;-37.670;-63.532;2023-03-08T15:45:44;19.60;99.90
44037;DHT22;62488;-37.670;-63.532;2023-03-08T15:48:16;19.50;99.90
44037;DHT22;62488;-37.670;-63.532;2023-03-08T15:50:44;19.40;99.90
44037;DHT22;62488;-37.670;-63.532;2023-03-08T15:53:12;19.30;99.90
44037;DHT22;62488;-37.670;-63.532;2023-03-08T15:55:39;19.20;99.90
44037;DHT22;62488;-37.670;-63.532;2023-03-08T15:58:07;19.00;99.90
44037;DHT22;62488;-37.670;-63.532;2023-03-08T16:00:34;18.80;99.90
44037;DHT22;62488;-37.670;-63.532;2023-03-08T16:03:01;18.70;99.90
44037;DHT22;62488;-37.670;-63.532;2023-03-08T16:05:30;18.60;99.90
44037;DHT22;62488;-37.670;-63.532;2023-03-08T16:08:00;18.70;99.90
44037;DHT22;62488;-37.670;-63.532;2023-03-08T16:10:33;18.90;99.90
44037;DHT22;62488;-37.670;-63.532;2023-03-08T16:13:06;19.00;99.90
44037;DHT22;62488;-37.670;-63.532;2023-03-08T16:15:33;19.10;99.90
44037;DHT22;62488;-37.670;-63.532;2023-03-08T16:18:00;19.20;99.90
44037;DHT22;62488;-37.670;-63.532;2023-03-08T16:20:27;19.20;99.90
44037;DHT22;62488;-37.670;-63.532;2023-03-08T16:22:54;19.10;99.90
44037;DHT22;62488;-37.670;-63.532;2023-03-08T16:25:22;18.90;99.90
44037;DHT22;62488;-37.670;-63.532;2023-03-08T16:27:50;18.80;99.90
44037;DHT22;62488;-37.670;-63.532;2023-03-08T16:30:18;18.70;99.90
44037;DHT22;62488;-37.670;-63.532;2023-03-08T16:32:45;18.70;99.90
44037;DHT22;62488;-37.670;-63.532;2023-03-08T16:35:12;18.70;99.90
44037;DHT22;62488;-37.670;-63.532;2023-03-08T16:37:39;18.70;99.90
44037;DHT22;62488;-37.670;-63.532;2023-03-08T16:40:07;19.10;99.90